sensor_id;sensor_type;location;lat;lon;timestamp;P1;durP1;ratioP1;P2;durP2;ratioP2
63621;SDS011;49770;47.544;19.074;2023-01-08T00:01:32;85.22;;;31.73;;
63621;SDS011;49770;47.544;19.074;2023-01-08T00:04:35;86.47;;;31.98;;
63621;SDS011;49770;47.544;19.074;2023-01-08T00:07:37;76.18;;;31.40;;
63621;SDS011;49770;47.544;19.074;2023-01-08T00:10:41;81.03;;;31.95;;
63621;SDS011;49770;47.544;19.074;2023-01-08T00:13:44;82.12;;;32.45;;
63621;SDS011;49770;47.544;19.074;2023-01-08T00:16:47;87.72;;;33.00;;
63621;SDS011;49770;47.544;19.074;2023-01-08T00:19:50;80.00;;;31.23;;
63621;SDS011;49770;47.544;19.074;2023-01-08T00:22:53;83.25;;;31.85;;
63621;SDS011;49770;47.544;19.074;2023-01-08T00:25:56;87.72;;;32.80;;
63621;SDS011;49770;47.544;19.074;2023-01-08T00:28:59;81.68;;;32.13;;
63621;SDS011;49770;47.544;19.074;2023-01-08T00:32:04;85.60;;;32.63;;
63621;SDS011;49770;47.544;19.074;2023-01-08T00:35:07;81.75;;;31.55;;
63621;SDS011;49770;47.544;19.074;2023-01-08T00:38:10;80.68;;;32.25;;
63621;SDS011;49770;47.544;19.074;2023-01-08T00:41:14;83.85;;;31.92;;
63621;SDS011;49770;47.544;19.074;2023-01-08T00:44:17;81.60;;;31.33;;
63621;SDS011;49770;47.544;19.074;2023-01-08T00:47:20;94.43;;;33.42;;
63621;SDS011;49770;47.544;19.074;2023-01-08T00:50:23;85.53;;;31.77;;
63621;SDS011;49770;47.544;19.074;2023-01-08T00:53:26;78.62;;;32.10;;
63621;SDS011;49770;47.544;19.074;2023-01-08T00:56:28;73.18;;;31.55;;
63621;SDS011;49770;47.544;19.074;2023-01-08T00:59:31;77.53;;;31.50;;
63621;SDS011;49770;47.544;19.074;2023-01-08T01:02:34;70.95;;;31.02;;
63621;SDS011;49770;47.544;19.074;2023-01-08T01:05:38;76.12;;;31.08;;
63621;SDS011;49770;47.544;19.074;2023-01-08T01:08:40;79.55;;;30.80;;
63621;SDS011;49770;47.544;19.074;2023-01-08T01:11:45;73.07;;;31.10;;
63621;SDS011;49770;47.544;19.074;2023-01-08T01:14:48;68.55;;;30.55;;
63621;SDS011;49770;47.544;19.074;2023-01-08T01:17:51;80.90;;;30.83;;
63621;SDS011;49770;47.544;19.074;2023-01-08T01:20:53;69.15;;;29.00;;
63621;SDS011;49770;47.544;19.074;2023-01-08T01:23:58;68.05;;;30.27;;
63621;SDS011;49770;47.544;19.074;2023-01-08T01:27:02;69.25;;;30.58;;
63621;SDS011;49770;47.544;19.074;2023-01-08T01:30:06;70.80;;;29.85;;
63621;SDS011;49770;47.544;19.074;2023-01-08T01:33:09;72.62;;;29.75;;
63621;SDS011;49770;47.544;19.074;2023-01-08T01:36:13;73.53;;;29.77;;
63621;SDS011;49770;47.544;19.074;2023-01-08T01:39:17;70.97;;;28.58;;
63621;SDS011;49770;47.544;19.074;2023-01-08T01:42:21;67.78;;;29.25;;
63621;SDS011;49770;47.544;19.074;2023-01-08T01:45:42;70.32;;;29.58;;
63621;SDS011;49770;47.544;19.074;2023-01-08T01:48:45;72.37;;;29.15;;
63621;SDS011;49770;47.544;19.074;2023-01-08T01:51:52;71.18;;;28.65;;
63621;SDS011;49770;47.544;19.074;2023-01-08T01:54:58;65.78;;;28.83;;
63621;SDS011;49770;47.544;19.074;2023-01-08T02:01:11;69.65;;;28.55;;
63621;SDS011;49770;47.544;19.074;2023-01-08T02:04:16;70.45;;;29.58;;
63621;SDS011;49770;47.544;19.074;2023-01-08T02:07:27;63.15;;;26.30;;
63621;SDS011;49770;47.544;19.074;2023-01-08T02:10:41;66.00;;;29.27;;
63621;SDS011;49770;47.544;19.074;2023-01-08T02:14:04;62.67;;;28.23;;
63621;SDS011;49770;47.544;19.074;2023-01-08T02:17:17;61.92;;;27.65;;
63621;SDS011;49770;47.544;19.074;2023-01-08T02:20:41;61.05;;;26.17;;
63621;SDS011;49770;47.544;19.074;2023-01-08T02:24:12;65.90;;;27.80;;
63621;SDS011;49770;47.544;19.074;2023-01-08T02:27:17;61.78;;;27.65;;
63621;SDS011;49770;47.544;19.074;2023-01-08T02:30:22;61.30;;;26.05;;
63621;SDS011;49770;47.544;19.074;2023-01-08T02:33:26;62.90;;;27.00;;
63621;SDS011;49770;47.544;19.074;2023-01-08T02:39:43;60.28;;;26.17;;
63621;SDS011;49770;47.544;19.074;2023-01-08T02:43:12;59.63;;;26.35;;
63621;SDS011;49770;47.544;19.074;2023-01-08T02:46:21;54.88;;;25.20;;
63621;SDS011;49770;47.544;19.074;2023-01-08T02:49:30;57.83;;;26.35;;
63621;SDS011;49770;47.544;19.074;2023-01-08T02:52:40;54.25;;;25.17;;
63621;SDS011;49770;47.544;19.074;2023-01-08T02:55:59;56.05;;;25.75;;
63621;SDS011;49770;47.544;19.074;2023-01-08T02:59:07;51.80;;;25.45;;
63621;SDS011;49770;47.544;19.074;2023-01-08T03:02:14;52.78;;;24.73;;
63621;SDS011;49770;47.544;19.074;2023-01-08T03:05:23;51.78;;;25.27;;
63621;SDS011;49770;47.544;19.074;2023-01-08T03:08:27;50.42;;;23.38;;
63621;SDS011;49770;47.544;19.074;2023-01-08T03:11:35;51.80;;;24.83;;
63621;SDS011;49770;47.544;19.074;2023-01-08T03:14:53;57.25;;;25.40;;
63621;SDS011;49770;47.544;19.074;2023-01-08T03:18:01;54.13;;;24.52;;
63621;SDS011;49770;47.544;19.074;2023-01-08T03:21:10;50.17;;;25.07;;
63621;SDS011;49770;47.544;19.074;2023-01-08T03:24:16;58.13;;;26.17;;
63621;SDS011;49770;47.544;19.074;2023-01-08T03:27:26;53.70;;;25.83;;
63621;SDS011;49770;47.544;19.074;2023-01-08T03:30:34;54.92;;;24.83;;
63621;SDS011;49770;47.544;19.074;2023-01-08T03:33:40;47.88;;;23.70;;
63621;SDS011;49770;47.544;19.074;2023-01-08T03:36:46;54.17;;;25.60;;
63621;SDS011;49770;47.544;19.074;2023-01-08T03:40:02;50.00;;;24.98;;
63621;SDS011;49770;47.544;19.074;2023-01-08T03:43:09;52.95;;;25.15;;
63621;SDS011;49770;47.544;19.074;2023-01-08T03:46:16;56.42;;;26.08;;
63621;SDS011;49770;47.544;19.074;2023-01-08T03:49:22;55.78;;;26.42;;
63621;SDS011;49770;47.544;19.074;2023-01-08T03:52:28;52.50;;;24.17;;
63621;SDS011;49770;47.544;19.074;2023-01-08T03:55:32;51.30;;;25.12;;
63621;SDS011;49770;47.544;19.074;2023-01-08T03:58:35;57.20;;;25.58;;
63621;SDS011;49770;47.544;19.074;2023-01-08T04:01:38;54.67;;;25.42;;
63621;SDS011;49770;47.544;19.074;2023-01-08T04:04:43;52.08;;;25.52;;
63621;SDS011;49770;47.544;19.074;2023-01-08T04:07:45;52.35;;;24.83;;
63621;SDS011;49770;47.544;19.074;2023-01-08T04:10:48;53.05;;;25.60;;
63621;SDS011;49770;47.544;19.074;2023-01-08T04:13:51;54.65;;;25.83;;
63621;SDS011;49770;47.544;19.074;2023-01-08T04:16:56;56.55;;;26.12;;
63621;SDS011;49770;47.544;19.074;2023-01-08T04:19:58;55.60;;;25.30;;
63621;SDS011;49770;47.544;19.074;2023-01-08T04:23:01;57.90;;;27.35;;
63621;SDS011;49770;47.544;19.074;2023-01-08T04:26:04;54.65;;;26.27;;
63621;SDS011;49770;47.544;19.074;2023-01-08T04:29:08;57.58;;;25.88;;
63621;SDS011;49770;47.544;19.074;2023-01-08T04:32:12;54.75;;;26.67;;
63621;SDS011;49770;47.544;19.074;2023-01-08T04:35:14;57.67;;;26.25;;
63621;SDS011;49770;47.544;19.074;2023-01-08T04:38:17;58.42;;;26.67;;
63621;SDS011;49770;47.544;19.074;2023-01-08T04:41:21;54.00;;;25.73;;
63621;SDS011;49770;47.544;19.074;2023-01-08T04:44:23;57.38;;;25.37;;
63621;SDS011;49770;47.544;19.074;2023-01-08T04:47:26;61.28;;;27.10;;
63621;SDS011;49770;47.544;19.074;2023-01-08T04:50:29;62.92;;;27.90;;
63621;SDS011;49770;47.544;19.074;2023-01-08T04:53:33;62.95;;;27.67;;
63621;SDS011;49770;47.544;19.074;2023-01-08T04:56:37;60.95;;;27.37;;
63621;SDS011;49770;47.544;19.074;2023-01-08T04:59:40;54.78;;;26.02;;
63621;SDS011;49770;47.544;19.074;2023-01-08T05:02:43;56.03;;;25.95;;
63621;SDS011;49770;47.544;19.074;2023-01-08T05:05:46;58.97;;;27.05;;
63621;SDS011;49770;47.544;19.074;2023-01-08T05:08:51;59.00;;;26.35;;
63621;SDS011;49770;47.544;19.074;2023-01-08T05:11:54;58.58;;;26.73;;
63621;SDS011;49770;47.544;19.074;2023-01-08T05:14:56;57.58;;;27.15;;
63621;SDS011;49770;47.544;19.074;2023-01-08T05:18:00;59.47;;;26.58;;
63621;SDS011;49770;47.544;19.074;2023-01-08T05:21:04;56.08;;;25.75;;
63621;SDS011;49770;47.544;19.074;2023-01-08T05:24:07;52.28;;;25.52;;
63621;SDS011;49770;47.544;19.074;2023-01-08T05:27:13;55.38;;;27.05;;
63621;SDS011;49770;47.544;19.074;2023-01-08T05:30:16;55.47;;;25.50;;
63621;SDS011;49770;47.544;19.074;2023-01-08T05:33:18;60.00;;;26.33;;
63621;SDS011;49770;47.544;19.074;2023-01-08T05:36:21;56.28;;;26.75;;
63621;SDS011;49770;47.544;19.074;2023-01-08T05:39:24;57.75;;;27.25;;
63621;SDS011;49770;47.544;19.074;2023-01-08T05:42:27;58.42;;;26.25;;
63621;SDS011;49770;47.544;19.074;2023-01-08T05:45:29;60.55;;;27.30;;
63621;SDS011;49770;47.544;19.074;2023-01-08T05:48:35;53.83;;;25.33;;
63621;SDS011;49770;47.544;19.074;2023-01-08T05:51:38;56.80;;;26.40;;
63621;SDS011;49770;47.544;19.074;2023-01-08T05:54:41;55.15;;;26.67;;
63621;SDS011;49770;47.544;19.074;2023-01-08T05:57:44;56.00;;;26.17;;
63621;SDS011;49770;47.544;19.074;2023-01-08T06:00:47;51.78;;;25.85;;
63621;SDS011;49770;47.544;19.074;2023-01-08T06:03:49;57.45;;;25.95;;
63621;SDS011;49770;47.544;19.074;2023-01-08T06:06:52;50.05;;;25.37;;
63621;SDS011;49770;47.544;19.074;2023-01-08T06:09:55;52.85;;;26.58;;
63621;SDS011;49770;47.544;19.074;2023-01-08T06:12:58;58.05;;;27.95;;
63621;SDS011;49770;47.544;19.074;2023-01-08T06:16:01;54.67;;;26.37;;
63621;SDS011;49770;47.544;19.074;2023-01-08T06:19:03;50.17;;;25.48;;
63621;SDS011;49770;47.544;19.074;2023-01-08T06:22:06;63.95;;;26.67;;
63621;SDS011;49770;47.544;19.074;2023-01-08T06:25:09;53.47;;;26.75;;
63621;SDS011;49770;47.544;19.074;2023-01-08T06:28:12;57.40;;;26.50;;
63621;SDS011;49770;47.544;19.074;2023-01-08T06:31:14;57.00;;;26.65;;
63621;SDS011;49770;47.544;19.074;2023-01-08T06:34:17;47.58;;;24.92;;
63621;SDS011;49770;47.544;19.074;2023-01-08T06:37:20;55.88;;;24.80;;
63621;SDS011;49770;47.544;19.074;2023-01-08T06:40:23;51.28;;;25.27;;
63621;SDS011;49770;47.544;19.074;2023-01-08T06:43:26;50.30;;;24.25;;
63621;SDS011;49770;47.544;19.074;2023-01-08T06:46:28;52.83;;;25.55;;
63621;SDS011;49770;47.544;19.074;2023-01-08T06:49:31;50.28;;;25.12;;
63621;SDS011;49770;47.544;19.074;2023-01-08T06:52:34;48.95;;;25.00;;
63621;SDS011;49770;47.544;19.074;2023-01-08T06:55:37;53.42;;;25.52;;
63621;SDS011;49770;47.544;19.074;2023-01-08T06:58:40;55.97;;;26.33;;
63621;SDS011;49770;47.544;19.074;2023-01-08T07:01:43;55.47;;;25.80;;
63621;SDS011;49770;47.544;19.074;2023-01-08T07:04:46;52.25;;;26.33;;
63621;SDS011;49770;47.544;19.074;2023-01-08T07:07:49;50.58;;;24.52;;
63621;SDS011;49770;47.544;19.074;2023-01-08T07:10:52;51.60;;;25.52;;
63621;SDS011;49770;47.544;19.074;2023-01-08T07:13:55;52.70;;;26.42;;
63621;SDS011;49770;47.544;19.074;2023-01-08T07:16:58;55.40;;;27.17;;
63621;SDS011;49770;47.544;19.074;2023-01-08T07:20:01;52.28;;;26.00;;
63621;SDS011;49770;47.544;19.074;2023-01-08T07:23:04;52.67;;;26.70;;
63621;SDS011;49770;47.544;19.074;2023-01-08T07:26:09;51.58;;;26.60;;
63621;SDS011;49770;47.544;19.074;2023-01-08T07:29:12;54.05;;;25.52;;
63621;SDS011;49770;47.544;19.074;2023-01-08T07:32:14;54.58;;;26.27;;
63621;SDS011;49770;47.544;19.074;2023-01-08T07:35:17;49.58;;;25.67;;
63621;SDS011;49770;47.544;19.074;2023-01-08T07:38:20;52.20;;;25.95;;
63621;SDS011;49770;47.544;19.074;2023-01-08T07:41:24;58.08;;;27.00;;
63621;SDS011;49770;47.544;19.074;2023-01-08T07:44:28;55.45;;;27.52;;
63621;SDS011;49770;47.544;19.074;2023-01-08T07:47:31;54.60;;;28.45;;
63621;SDS011;49770;47.544;19.074;2023-01-08T07:50:35;55.80;;;28.45;;
63621;SDS011;49770;47.544;19.074;2023-01-08T07:53:39;58.03;;;29.25;;
63621;SDS011;49770;47.544;19.074;2023-01-08T07:56:41;59.13;;;28.40;;
63621;SDS011;49770;47.544;19.074;2023-01-08T07:59:45;55.10;;;27.37;;
63621;SDS011;49770;47.544;19.074;2023-01-08T08:02:48;53.15;;;28.27;;
63621;SDS011;49770;47.544;19.074;2023-01-08T08:05:51;56.80;;;27.87;;
63621;SDS011;49770;47.544;19.074;2023-01-08T08:08:55;50.95;;;27.35;;
63621;SDS011;49770;47.544;19.074;2023-01-08T08:11:59;52.40;;;27.50;;
63621;SDS011;49770;47.544;19.074;2023-01-08T08:15:02;49.67;;;27.52;;
63621;SDS011;49770;47.544;19.074;2023-01-08T08:18:07;53.35;;;28.02;;
63621;SDS011;49770;47.544;19.074;2023-01-08T08:21:11;58.22;;;27.70;;
63621;SDS011;49770;47.544;19.074;2023-01-08T08:24:14;52.72;;;27.52;;
63621;SDS011;49770;47.544;19.074;2023-01-08T08:27:17;54.45;;;27.52;;
63621;SDS011;49770;47.544;19.074;2023-01-08T08:30:20;53.53;;;27.13;;
63621;SDS011;49770;47.544;19.074;2023-01-08T08:33:25;54.80;;;27.75;;
63621;SDS011;49770;47.544;19.074;2023-01-08T08:36:28;52.70;;;26.95;;
63621;SDS011;49770;47.544;19.074;2023-01-08T08:39:31;58.08;;;26.48;;
63621;SDS011;49770;47.544;19.074;2023-01-08T08:42:35;52.85;;;25.90;;
63621;SDS011;49770;47.544;19.074;2023-01-08T08:45:37;53.25;;;26.58;;
63621;SDS011;49770;47.544;19.074;2023-01-08T08:48:40;47.97;;;25.48;;
63621;SDS011;49770;47.544;19.074;2023-01-08T08:51:43;47.58;;;25.08;;
63621;SDS011;49770;47.544;19.074;2023-01-08T08:54:46;50.72;;;26.05;;
63621;SDS011;49770;47.544;19.074;2023-01-08T08:57:48;51.63;;;26.08;;
63621;SDS011;49770;47.544;19.074;2023-01-08T09:00:51;50.42;;;26.87;;
63621;SDS011;49770;47.544;19.074;2023-01-08T09:03:54;46.83;;;25.35;;
63621;SDS011;49770;47.544;19.074;2023-01-08T09:06:57;47.55;;;25.62;;
63621;SDS011;49770;47.544;19.074;2023-01-08T09:10:00;46.37;;;25.08;;
63621;SDS011;49770;47.544;19.074;2023-01-08T09:13:04;51.15;;;25.33;;
63621;SDS011;49770;47.544;19.074;2023-01-08T09:16:07;46.35;;;25.35;;
63621;SDS011;49770;47.544;19.074;2023-01-08T09:19:10;48.28;;;25.50;;
63621;SDS011;49770;47.544;19.074;2023-01-08T09:22:13;47.83;;;24.80;;
63621;SDS011;49770;47.544;19.074;2023-01-08T09:25:16;43.20;;;23.92;;
63621;SDS011;49770;47.544;19.074;2023-01-08T09:28:19;47.00;;;24.92;;
63621;SDS011;49770;47.544;19.074;2023-01-08T09:31:22;44.65;;;24.63;;
63621;SDS011;49770;47.544;19.074;2023-01-08T09:34:26;45.65;;;23.60;;
63621;SDS011;49770;47.544;19.074;2023-01-08T09:37:29;44.92;;;24.35;;
63621;SDS011;49770;47.544;19.074;2023-01-08T09:40:35;42.35;;;23.45;;
63621;SDS011;49770;47.544;19.074;2023-01-08T09:43:43;47.97;;;24.67;;
63621;SDS011;49770;47.544;19.074;2023-01-08T09:46:48;46.67;;;23.23;;
63621;SDS011;49770;47.544;19.074;2023-01-08T09:49:53;43.45;;;23.15;;
63621;SDS011;49770;47.544;19.074;2023-01-08T09:52:59;42.72;;;23.10;;
63621;SDS011;49770;47.544;19.074;2023-01-08T09:56:03;41.75;;;22.92;;
63621;SDS011;49770;47.544;19.074;2023-01-08T09:59:13;42.10;;;22.73;;
63621;SDS011;49770;47.544;19.074;2023-01-08T10:02:20;45.20;;;22.98;;
63621;SDS011;49770;47.544;19.074;2023-01-08T10:05:25;41.30;;;22.10;;
63621;SDS011;49770;47.544;19.074;2023-01-08T10:08:29;36.10;;;21.98;;
63621;SDS011;49770;47.544;19.074;2023-01-08T10:11:37;35.20;;;21.30;;
63621;SDS011;49770;47.544;19.074;2023-01-08T10:14:44;40.33;;;22.50;;
63621;SDS011;49770;47.544;19.074;2023-01-08T10:18:04;37.30;;;21.42;;
63621;SDS011;49770;47.544;19.074;2023-01-08T10:21:11;36.45;;;20.85;;
63621;SDS011;49770;47.544;19.074;2023-01-08T10:24:15;41.60;;;23.23;;
63621;SDS011;49770;47.544;19.074;2023-01-08T10:27:20;38.25;;;23.10;;
63621;SDS011;49770;47.544;19.074;2023-01-08T10:30:34;38.72;;;21.90;;
63621;SDS011;49770;47.544;19.074;2023-01-08T10:33:41;40.10;;;22.62;;
63621;SDS011;49770;47.544;19.074;2023-01-08T10:36:46;38.15;;;22.95;;
63621;SDS011;49770;47.544;19.074;2023-01-08T10:39:49;38.17;;;23.08;;
63621;SDS011;49770;47.544;19.074;2023-01-08T10:42:54;36.17;;;22.42;;
63621;SDS011;49770;47.544;19.074;2023-01-08T10:45:58;34.80;;;21.37;;
63621;SDS011;49770;47.544;19.074;2023-01-08T10:49:04;35.97;;;22.20;;
63621;SDS011;49770;47.544;19.074;2023-01-08T10:52:22;35.08;;;21.00;;
63621;SDS011;49770;47.544;19.074;2023-01-08T10:55:36;35.45;;;21.42;;
63621;SDS011;49770;47.544;19.074;2023-01-08T10:58:41;39.78;;;21.95;;
63621;SDS011;49770;47.544;19.074;2023-01-08T11:01:48;36.13;;;21.67;;
63621;SDS011;49770;47.544;19.074;2023-01-08T11:04:52;36.35;;;22.80;;
63621;SDS011;49770;47.544;19.074;2023-01-08T11:07:55;36.33;;;21.50;;
63621;SDS011;49770;47.544;19.074;2023-01-08T11:11:00;35.20;;;21.90;;
63621;SDS011;49770;47.544;19.074;2023-01-08T11:14:18;36.38;;;22.60;;
63621;SDS011;49770;47.544;19.074;2023-01-08T11:17:25;35.95;;;22.35;;
63621;SDS011;49770;47.544;19.074;2023-01-08T11:20:29;39.95;;;22.80;;
63621;SDS011;49770;47.544;19.074;2023-01-08T11:23:32;34.53;;;22.35;;
63621;SDS011;49770;47.544;19.074;2023-01-08T11:26:36;39.22;;;23.48;;
63621;SDS011;49770;47.544;19.074;2023-01-08T11:29:46;37.45;;;22.98;;
63621;SDS011;49770;47.544;19.074;2023-01-08T11:32:56;38.78;;;23.67;;
63621;SDS011;49770;47.544;19.074;2023-01-08T11:36:03;41.35;;;24.17;;
63621;SDS011;49770;47.544;19.074;2023-01-08T11:39:16;38.10;;;23.35;;
63621;SDS011;49770;47.544;19.074;2023-01-08T11:46:23;35.08;;;22.77;;
63621;SDS011;49770;47.544;19.074;2023-01-08T11:49:54;36.33;;;23.77;;
63621;SDS011;49770;47.544;19.074;2023-01-08T12:03:28;36.80;;;23.52;;
63621;SDS011;49770;47.544;19.074;2023-01-08T12:09:58;38.22;;;24.05;;
63621;SDS011;49770;47.544;19.074;2023-01-08T12:20:05;39.25;;;25.00;;
63621;SDS011;49770;47.544;19.074;2023-01-08T12:26:42;38.28;;;24.73;;
63621;SDS011;49770;47.544;19.074;2023-01-08T12:33:00;40.00;;;25.50;;
63621;SDS011;49770;47.544;19.074;2023-01-08T12:36:13;38.05;;;25.48;;
63621;SDS011;49770;47.544;19.074;2023-01-08T12:39:22;38.17;;;25.00;;
63621;SDS011;49770;47.544;19.074;2023-01-08T12:42:29;39.05;;;25.85;;
63621;SDS011;49770;47.544;19.074;2023-01-08T12:45:38;38.92;;;26.27;;
63621;SDS011;49770;47.544;19.074;2023-01-08T12:48:45;39.80;;;26.80;;
63621;SDS011;49770;47.544;19.074;2023-01-08T13:05:46;41.47;;;26.55;;
63621;SDS011;49770;47.544;19.074;2023-01-08T13:08:51;43.03;;;28.00;;
63621;SDS011;49770;47.544;19.074;2023-01-08T13:11:57;40.45;;;27.10;;
63621;SDS011;49770;47.544;19.074;2023-01-08T13:15:02;41.05;;;26.08;;
63621;SDS011;49770;47.544;19.074;2023-01-08T13:18:13;41.22;;;26.52;;
63621;SDS011;49770;47.544;19.074;2023-01-08T13:21:25;46.65;;;28.48;;
63621;SDS011;49770;47.544;19.074;2023-01-08T13:24:39;47.45;;;29.42;;
63621;SDS011;49770;47.544;19.074;2023-01-08T13:27:44;43.47;;;27.40;;
63621;SDS011;49770;47.544;19.074;2023-01-08T13:30:48;40.60;;;27.02;;
63621;SDS011;49770;47.544;19.074;2023-01-08T13:33:51;37.55;;;25.65;;
63621;SDS011;49770;47.544;19.074;2023-01-08T13:36:56;39.28;;;26.02;;
63621;SDS011;49770;47.544;19.074;2023-01-08T13:39:59;41.83;;;26.45;;
63621;SDS011;49770;47.544;19.074;2023-01-08T13:43:03;42.25;;;26.62;;
63621;SDS011;49770;47.544;19.074;2023-01-08T13:46:14;46.85;;;26.70;;
63621;SDS011;49770;47.544;19.074;2023-01-08T13:52:47;46.05;;;28.30;;
63621;SDS011;49770;47.544;19.074;2023-01-08T13:55:58;45.78;;;28.40;;
63621;SDS011;49770;47.544;19.074;2023-01-08T13:59:04;48.25;;;29.27;;
63621;SDS011;49770;47.544;19.074;2023-01-08T14:02:24;49.60;;;31.62;;
63621;SDS011;49770;47.544;19.074;2023-01-08T14:05:29;47.92;;;29.23;;
63621;SDS011;49770;47.544;19.074;2023-01-08T14:08:36;52.17;;;30.08;;
63621;SDS011;49770;47.544;19.074;2023-01-08T14:11:51;47.88;;;29.70;;
63621;SDS011;49770;47.544;19.074;2023-01-08T14:14:57;52.38;;;31.27;;
63621;SDS011;49770;47.544;19.074;2023-01-08T14:18:01;52.70;;;31.80;;
63621;SDS011;49770;47.544;19.074;2023-01-08T14:21:06;50.12;;;30.62;;
63621;SDS011;49770;47.544;19.074;2023-01-08T14:24:10;50.95;;;30.80;;
63621;SDS011;49770;47.544;19.074;2023-01-08T14:27:24;54.90;;;30.95;;
63621;SDS011;49770;47.544;19.074;2023-01-08T14:30:29;54.83;;;32.25;;
63621;SDS011;49770;47.544;19.074;2023-01-08T14:33:33;52.53;;;31.15;;
63621;SDS011;49770;47.544;19.074;2023-01-08T14:36:38;54.42;;;32.65;;
63621;SDS011;49770;47.544;19.074;2023-01-08T14:39:44;60.55;;;34.65;;
63621;SDS011;49770;47.544;19.074;2023-01-08T14:42:49;60.08;;;35.20;;
63621;SDS011;49770;47.544;19.074;2023-01-08T14:45:54;63.78;;;36.20;;
63621;SDS011;49770;47.544;19.074;2023-01-08T14:48:58;62.15;;;36.15;;
63621;SDS011;49770;47.544;19.074;2023-01-08T14:52:01;62.38;;;35.63;;
63621;SDS011;49770;47.544;19.074;2023-01-08T14:55:04;63.75;;;35.95;;
63621;SDS011;49770;47.544;19.074;2023-01-08T14:58:11;59.63;;;36.80;;
63621;SDS011;49770;47.544;19.074;2023-01-08T15:01:22;65.07;;;37.53;;
63621;SDS011;49770;47.544;19.074;2023-01-08T15:04:27;67.43;;;38.75;;
63621;SDS011;49770;47.544;19.074;2023-01-08T15:07:31;66.95;;;39.58;;
63621;SDS011;49770;47.544;19.074;2023-01-08T15:10:39;68.70;;;39.50;;
63621;SDS011;49770;47.544;19.074;2023-01-08T15:13:44;66.87;;;37.95;;
63621;SDS011;49770;47.544;19.074;2023-01-08T15:16:47;69.00;;;38.65;;
63621;SDS011;49770;47.544;19.074;2023-01-08T15:19:52;67.10;;;39.33;;
63621;SDS011;49770;47.544;19.074;2023-01-08T15:23:00;63.65;;;37.10;;
63621;SDS011;49770;47.544;19.074;2023-01-08T15:26:03;70.53;;;41.15;;
63621;SDS011;49770;47.544;19.074;2023-01-08T15:29:15;70.75;;;39.72;;
63621;SDS011;49770;47.544;19.074;2023-01-08T15:35:33;69.00;;;39.60;;
63621;SDS011;49770;47.544;19.074;2023-01-08T15:38:36;68.57;;;38.70;;
63621;SDS011;49770;47.544;19.074;2023-01-08T15:41:39;72.95;;;41.25;;
63621;SDS011;49770;47.544;19.074;2023-01-08T15:45:01;66.65;;;39.40;;
63621;SDS011;49770;47.544;19.074;2023-01-08T15:48:05;68.07;;;39.50;;
63621;SDS011;49770;47.544;19.074;2023-01-08T15:51:08;66.60;;;38.42;;
63621;SDS011;49770;47.544;19.074;2023-01-08T15:54:12;65.62;;;38.55;;
63621;SDS011;49770;47.544;19.074;2023-01-08T15:57:15;68.37;;;39.80;;
63621;SDS011;49770;47.544;19.074;2023-01-08T16:00:22;66.45;;;39.55;;
63621;SDS011;49770;47.544;19.074;2023-01-08T16:03:25;67.87;;;38.90;;
63621;SDS011;49770;47.544;19.074;2023-01-08T16:06:27;68.15;;;38.50;;
63621;SDS011;49770;47.544;19.074;2023-01-08T16:09:31;64.78;;;38.65;;
63621;SDS011;49770;47.544;19.074;2023-01-08T16:12:34;67.25;;;38.40;;
63621;SDS011;49770;47.544;19.074;2023-01-08T16:15:37;68.75;;;38.65;;
63621;SDS011;49770;47.544;19.074;2023-01-08T16:18:40;66.37;;;38.10;;
63621;SDS011;49770;47.544;19.074;2023-01-08T16:21:44;64.05;;;37.78;;
63621;SDS011;49770;47.544;19.074;2023-01-08T16:24:49;63.83;;;37.78;;
63621;SDS011;49770;47.544;19.074;2023-01-08T16:27:52;67.30;;;37.80;;
63621;SDS011;49770;47.544;19.074;2023-01-08T16:30:54;66.60;;;38.60;;
63621;SDS011;49770;47.544;19.074;2023-01-08T16:34:01;67.30;;;38.42;;
63621;SDS011;49770;47.544;19.074;2023-01-08T16:37:04;69.40;;;39.05;;
63621;SDS011;49770;47.544;19.074;2023-01-08T16:40:08;65.80;;;37.90;;
63621;SDS011;49770;47.544;19.074;2023-01-08T16:43:12;62.60;;;38.22;;
63621;SDS011;49770;47.544;19.074;2023-01-08T16:46:15;59.47;;;36.08;;
63621;SDS011;49770;47.544;19.074;2023-01-08T16:49:19;65.93;;;38.22;;
63621;SDS011;49770;47.544;19.074;2023-01-08T16:52:22;62.00;;;37.72;;
63621;SDS011;49770;47.544;19.074;2023-01-08T16:55:25;67.20;;;38.08;;
63621;SDS011;49770;47.544;19.074;2023-01-08T16:58:28;61.63;;;36.13;;
63621;SDS011;49770;47.544;19.074;2023-01-08T17:01:31;65.07;;;37.13;;
63621;SDS011;49770;47.544;19.074;2023-01-08T17:04:34;65.65;;;37.97;;
63621;SDS011;49770;47.544;19.074;2023-01-08T17:07:37;62.65;;;36.28;;
63621;SDS011;49770;47.544;19.074;2023-01-08T17:10:40;60.25;;;36.05;;
63621;SDS011;49770;47.544;19.074;2023-01-08T17:13:43;60.20;;;37.30;;
63621;SDS011;49770;47.544;19.074;2023-01-08T17:16:47;62.08;;;36.65;;
63621;SDS011;49770;47.544;19.074;2023-01-08T17:19:50;62.22;;;36.40;;
63621;SDS011;49770;47.544;19.074;2023-01-08T17:22:55;58.45;;;35.72;;
63621;SDS011;49770;47.544;19.074;2023-01-08T17:25:59;61.53;;;35.08;;
63621;SDS011;49770;47.544;19.074;2023-01-08T17:29:06;61.35;;;35.47;;
63621;SDS011;49770;47.544;19.074;2023-01-08T17:32:11;64.90;;;37.92;;
63621;SDS011;49770;47.544;19.074;2023-01-08T17:35:15;58.92;;;37.13;;
63621;SDS011;49770;47.544;19.074;2023-01-08T17:38:18;60.65;;;37.30;;
63621;SDS011;49770;47.544;19.074;2023-01-08T17:41:22;58.17;;;35.60;;
63621;SDS011;49770;47.544;19.074;2023-01-08T17:44:44;58.78;;;36.30;;
63621;SDS011;49770;47.544;19.074;2023-01-08T17:47:47;56.90;;;35.22;;
63621;SDS011;49770;47.544;19.074;2023-01-08T17:50:49;58.08;;;35.22;;
63621;SDS011;49770;47.544;19.074;2023-01-08T17:53:52;60.33;;;36.67;;
63621;SDS011;49770;47.544;19.074;2023-01-08T17:56:57;58.38;;;36.10;;
63621;SDS011;49770;47.544;19.074;2023-01-08T18:00:00;58.72;;;35.65;;
63621;SDS011;49770;47.544;19.074;2023-01-08T18:03:05;56.58;;;34.67;;
63621;SDS011;49770;47.544;19.074;2023-01-08T18:06:09;54.90;;;34.08;;
63621;SDS011;49770;47.544;19.074;2023-01-08T18:09:13;57.25;;;34.85;;
63621;SDS011;49770;47.544;19.074;2023-01-08T18:12:17;55.80;;;35.17;;
63621;SDS011;49770;47.544;19.074;2023-01-08T18:15:20;61.05;;;36.53;;
63621;SDS011;49770;47.544;19.074;2023-01-08T18:18:23;58.30;;;35.58;;
63621;SDS011;49770;47.544;19.074;2023-01-08T18:21:27;57.30;;;34.95;;
63621;SDS011;49770;47.544;19.074;2023-01-08T18:24:30;56.78;;;34.78;;
63621;SDS011;49770;47.544;19.074;2023-01-08T18:27:34;57.47;;;35.70;;
63621;SDS011;49770;47.544;19.074;2023-01-08T18:30:37;58.08;;;35.22;;
63621;SDS011;49770;47.544;19.074;2023-01-08T18:33:40;61.50;;;34.88;;
63621;SDS011;49770;47.544;19.074;2023-01-08T18:36:43;55.42;;;34.17;;
63621;SDS011;49770;47.544;19.074;2023-01-08T18:39:46;56.78;;;34.90;;
63621;SDS011;49770;47.544;19.074;2023-01-08T18:42:49;63.10;;;35.15;;
63621;SDS011;49770;47.544;19.074;2023-01-08T18:45:58;57.65;;;35.45;;